Time;durP1;ratioP1;P1;durP2;ratioP2;P2;SDS_P1;SDS_P2;PMS_P1;PMS_P2;Temp;Humidity;BMP_temperature;BMP_pressure;BME280_temperature;BME280_humidity;BME280_pressure;Samples;Min_cycle;Max_cycle;Signal;HPM_P1;HPM_P2
2021/09/18 02:55:29;;;;;;;1.90;1.73;;;21.90;63.50;;;;;;5104875;28;20112;-63
2021/09/18 02:57:55;;;;;;;1.67;1.58;;;21.80;63.50;;;;;;5105405;28;20055;-65
2021/09/18 03:00:21;;;;;;;2.00;1.90;;;21.90;63.50;;;;;;5103561;28;20035;-64
2021/09/18 03:02:47;;;;;;;1.85;1.75;;;21.90;63.50;;;;;;5103876;28;20036;-65
2021/09/18 03:05:13;;;;;;;2.40;1.90;;;21.90;63.40;;;;;;5103596;28;20040;-63
2021/09/18 03:07:39;;;;;;;1.80;1.70;;;21.90;63.30;;;;;;5101500;28;20096;-65
2021/09/18 03:10:07;;;;;;;1.38;1.38;;;21.90;63.30;;;;;;5106008;28;20103;-64
2021/09/18 03:12:33;;;;;;;1.70;1.60;;;21.90;63.30;;;;;;5104763;28;20034;-65
2021/09/18 03:14:59;;;;;;;2.17;2.00;;;21.90;63.20;;;;;;5108386;28;20050;-65
2021/09/18 03:17:25;;;;;;;2.17;1.55;;;21.90;63.20;;;;;;5105979;28;20375;-64
2021/09/18 03:19:53;;;;;;;1.70;1.60;;;21.90;63.10;;;;;;5106040;28;20028;-65
2021/09/18 04:08:49;;;;;;;;;;;;;;;;;;;;;
2021/09/18 04:54:38;;;;;;;;;;;;;;;;;;;;;
2021/09/18 05:37:01;;;;;;;1.65;1.40;;;21.40;62.70;;;;;;5098865;28;20460;-65
2021/09/18 05:39:27;;;;;;;1.90;1.80;;;21.40;62.70;;;;;;5122054;27;20092;-67
2021/09/18 05:41:52;;;;;;;1.90;1.80;;;21.40;63.30;;;;;;5112762;27;20035;-67
2021/09/18 05:44:18;;;;;;;1.60;1.50;;;21.40;62.50;;;;;;5113113;27;20427;-67
2021/09/18 05:46:44;;;;;;;1.70;1.48;;;21.40;62.50;;;;;;5109428;28;20032;-67
2021/09/18 05:49:09;;;;;;;1.85;1.75;;;21.40;62.40;;;;;;5108797;28;20108;-67
2021/09/18 05:51:35;;;;;;;1.95;1.85;;;21.40;62.40;;;;;;5089985;28;20232;-67
2021/09/18 05:54:01;;;;;;;1.85;1.75;;;21.40;62.30;;;;;;5122393;27;20512;-67
2021/09/18 05:56:26;;;;;;;1.90;1.80;;;21.40;62.30;;;;;;5115684;27;20135;-68
2021/09/18 05:58:52;;;;;;;2.08;1.90;;;21.40;62.20;;;;;;5106516;28;20023;-67
2021/09/18 07:20:16;;;;;;;1.33;1.27;;;21.30;62.50;;;;;;5022579;28;20071;-64
2021/09/18 07:29:37;;;;;;;;;;;;;;;;;;;;;
2021/09/18 07:32:04;;;;;;;1.15;1.05;;;21.30;62.50;;;;;;5091062;27;20043;-65
2021/09/18 07:35:19;;;;;;;1.33;1.23;;;21.30;62.50;;;;;;5123401;27;20501;-65
2021/09/18 07:38:08;;;;;;;1.48;1.38;;;21.30;62.50;;;;;;5002115;28;20052;-64
2021/09/18 07:41:11;;;;;;;1.23;1.15;;;21.30;62.50;;;;;;5024024;28;20041;-64
2021/09/18 07:44:14;;;;;;;2.00;1.23;;;21.40;62.50;;;;;;5021015;28;20041;-65
2021/09/18 07:46:52;;;;;;;2.15;1.40;;;21.30;62.40;;;;;;5018606;28;20056;-64
2021/09/18 07:49:39;;;;;;;1.50;1.40;;;21.40;62.50;;;;;;5008072;28;20037;-64
2021/09/18 07:54:54;;;;;;;1.58;1.48;;;21.40;62.50;;;;;;5005305;28;20027;-65
2021/09/18 07:57:21;;;;;;;1.40;1.30;;;21.40;62.60;;;;;;5125785;27;20509;-64
2021/09/18 07:59:46;;;;;;;1.40;1.30;;;21.40;62.60;;;;;;5126214;27;20043;-64
2021/09/18 08:02:12;;;;;;;1.40;1.30;;;21.40;62.60;;;;;;5123644;27;20043;-64
2021/09/18 08:04:37;;;;;;;1.40;1.30;;;21.40;62.50;;;;;;5121860;27;20115;-64
2021/09/18 08:07:03;;;;;;;1.40;1.33;;;21.50;62.50;;;;;;5124693;27;20039;-64
2021/09/18 08:09:29;;;;;;;1.45;1.35;;;21.40;62.50;;;;;;5124123;27;20039;-64
2021/09/18 08:11:54;;;;;;;1.48;1.20;;;21.50;62.50;;;;;;5133345;27;20035;-64
2021/09/18 08:14:20;;;;;;;5.57;1.70;;;21.50;62.50;;;;;;5129430;27;20028;-65
2021/09/18 08:16:46;;;;;;;2.40;1.60;;;21.50;62.70;;;;;;5122860;27;20444;-65
2021/09/18 08:19:12;;;;;;;1.02;1.02;;;21.50;62.70;;;;;;5126173;27;20042;-65
2021/09/18 08:21:37;;;;;;;1.33;1.23;;;21.50;62.70;;;;;;5126998;27;20062;-64
2021/09/18 08:24:03;;;;;;;1.60;1.50;;;21.50;62.70;;;;;;5121632;27;20036;-63
2021/09/18 08:26:32;;;;;;;1.63;1.40;;;21.60;62.80;;;;;;5127503;27;20035;-63
2021/09/18 08:28:58;;;;;;;3.10;1.92;;;21.60;62.90;;;;;;5111890;28;20045;-62
2021/09/18 08:31:24;;;;;;;2.13;1.92;;;21.60;63.20;;;;;;5122622;28;20470;-62
2021/09/18 08:33:50;;;;;;;2.38;2.17;;;21.60;63.20;;;;;;5134922;27;20042;-63
2021/09/18 08:36:16;;;;;;;2.67;2.45;;;21.60;63.40;;;;;;5125234;27;20098;-63
2021/09/18 08:38:41;;;;;;;3.17;2.83;;;21.60;63.80;;;;;;5126513;27;20110;-64
2021/09/18 08:41:11;;;;;;;3.45;3.15;;;21.70;64.30;;;;;;5109903;28;20043;-64
2021/09/18 08:43:37;;;;;;;2.80;2.58;;;21.70;64.50;;;;;;5110278;27;20485;-63
2021/09/18 08:46:02;;;;;;;3.67;3.10;;;21.70;64.60;;;;;;5127744;27;20054;-64
2021/09/18 08:48:29;;;;;;;3.58;3.28;;;21.70;64.80;;;;;;5131914;27;20039;-63
2021/09/18 08:50:54;;;;;;;3.30;3.00;;;21.70;64.90;;;;;;5122105;27;20051;-64
2021/09/18 08:53:21;;;;;;;3.53;3.20;;;21.80;64.90;;;;;;5117318;27;20124;-64
2021/09/18 08:56:00;;;;;;;3.45;3.15;;;21.80;64.80;;;;;;5126472;27;20058;-62
2021/09/18 08:58:26;;;;;;;3.47;3.17;;;21.80;65.00;;;;;;5111174;27;20500;-63
2021/09/18 09:00:54;;;;;;;3.10;2.80;;;21.80;65.00;;;;;;5131479;27;20058;-62
2021/09/18 09:03:37;;;;;;;3.78;3.13;;;21.80;65.10;;;;;;5125941;27;20057;-61
2021/09/18 09:06:05;;;;;;;3.20;2.80;;;21.80;65.10;;;;;;5110334;27;20046;-64
2021/09/18 09:08:31;;;;;;;2.88;2.67;;;21.80;65.20;;;;;;5131290;27;20027;-63
2021/09/18 09:10:57;;;;;;;3.22;2.92;;;21.80;65.10;;;;;;5136828;27;20027;-63
2021/09/18 09:13:25;;;;;;;3.30;2.40;;;21.80;65.20;;;;;;5122771;27;20043;-57
2021/09/18 09:16:05;;;;;;;3.08;2.78;;;21.80;65.20;;;;;;5107468;27;20048;-62
2021/09/18 09:18:39;;;;;;;2.90;2.60;;;21.90;65.30;;;;;;5125803;27;20600;-64
2021/09/18 09:21:20;;;;;;;2.97;2.78;;;21.90;65.30;;;;;;5121052;27;20023;-56
2021/09/18 09:24:12;;;;;;;3.00;2.53;;;21.90;65.30;;;;;;5107605;27;20110;-56
2021/09/18 09:26:41;;;;;;;3.13;2.83;;;21.80;65.20;;;;;;5109247;27;20042;-55
2021/09/18 09:29:07;;;;;;;3.00;2.75;;;21.90;65.20;;;;;;5113182;27;20019;-54
2021/09/18 09:31:38;;;;;;;3.33;3.03;;;21.90;65.30;;;;;;5138694;27;20106;-54
2021/09/18 09:34:15;;;;;;;3.10;2.80;;;21.90;65.30;;;;;;5139925;27;20060;-56
2021/09/18 09:36:46;;;;;;;3.03;2.72;;;21.90;65.30;;;;;;5131781;27;20035;-55
2021/09/18 09:39:18;;;;;;;3.15;2.90;;;21.90;65.30;;;;;;5100412;28;20111;-55
2021/09/18 09:41:52;;;;;;;3.78;3.33;;;22.00;65.40;;;;;;5129927;27;20060;-55
2021/09/18 09:44:20;;;;;;;3.63;3.33;;;22.00;65.40;;;;;;5123322;27;20356;-54
2021/09/18 09:47:03;;;;;;;3.47;3.05;;;22.00;65.50;;;;;;5138740;27;20533;-55
2021/09/18 09:49:46;;;;;;;3.90;3.47;;;22.00;65.50;;;;;;5129606;27;20372;-55
2021/09/18 09:52:23;;;;;;;4.03;3.47;;;22.00;65.50;;;;;;5133873;27;20054;-54
2021/09/18 09:54:51;;;;;;;4.07;3.60;;;22.00;65.50;;;;;;5132720;27;20049;-56
2021/09/18 09:57:17;;;;;;;3.92;3.50;;;22.00;65.50;;;;;;5123686;27;20051;-55
2021/09/18 09:59:42;;;;;;;4.35;3.78;;;22.10;65.60;;;;;;5129617;27;20050;-55
2021/09/18 10:02:12;;;;;;;4.78;4.13;;;22.10;65.60;;;;;;5130047;27;20039;-53
2021/09/18 10:04:38;;;;;;;4.10;3.70;;;22.10;65.60;;;;;;5130580;27;20035;-55
2021/09/18 10:07:05;;;;;;;4.75;4.30;;;22.10;65.60;;;;;;5135630;27;20440;-55
2021/09/18 10:09:33;;;;;;;4.35;3.85;;;22.20;65.60;;;;;;5129919;27;20023;-54
2021/09/18 10:11:59;;;;;;;5.32;4.68;;;22.10;65.50;;;;;;5134186;27;20474;-55
2021/09/18 10:14:27;;;;;;;5.15;4.65;;;22.20;65.60;;;;;;5131710;27;20038;-55
2021/09/18 10:16:57;;;;;;;7.05;4.82;;;22.20;65.60;;;;;;5111572;27;20050;-54
2021/09/18 10:19:54;;;;;;;5.40;4.88;;;22.20;65.60;;;;;;5129423;27;20031;-55
2021/09/18 10:24:58;;;;;;;5.53;4.80;;;22.20;65.60;;;;;;5119013;27;20037;-55
2021/09/18 10:27:26;;;;;;;6.32;5.63;;;22.20;65.50;;;;;;5129924;27;20474;-54
2021/09/18 10:29:53;;;;;;;5.93;5.22;;;22.30;65.60;;;;;;5131260;27;20504;-54
2021/09/18 10:32:20;;;;;;;5.80;4.93;;;22.30;65.60;;;;;;5134259;27;20031;-52
2021/09/18 10:49:23;;;;;;;6.97;6.03;;;22.30;65.70;;;;;;5017715;28;20110;-63
2021/09/18 11:42:59;;;;;;;8.02;7.18;;;22.40;65.50;;;;;;4972830;28;20089;-63
2021/09/18 12:26:48;;;;;;;8.30;7.38;;;22.60;65.30;;;;;;5034200;27;20217;-62
2021/09/18 12:30:24;;;;;;;7.88;7.07;;;22.60;65.30;;;;;;5122837;27;20074;-63
2021/09/18 12:35:47;;;;;;;7.88;7.03;;;22.60;65.20;;;;;;5124084;27;20363;-64
2021/09/18 12:38:16;;;;;;;7.68;6.88;;;22.60;65.10;;;;;;5125174;27;20489;-63
2021/09/18 12:40:47;;;;;;;8.07;7.18;;;22.60;65.10;;;;;;5127772;27;20474;-61
2021/09/18 12:43:21;;;;;;;8.43;7.05;;;22.70;65.10;;;;;;5129482;27;20049;-60
2021/09/18 12:45:49;;;;;;;8.23;7.10;;;22.70;65.10;;;;;;5129692;27;20046;-63
2021/09/18 12:48:15;;;;;;;7.28;6.53;;;22.70;65.00;;;;;;5114063;27;20068;-61
2021/09/18 12:50:54;;;;;;;8.32;7.40;;;22.70;65.00;;;;;;5124821;27;20037;-60
2021/09/18 12:53:28;;;;;;;7.82;7.03;;;22.70;64.90;;;;;;5121922;27;20474;-63
2021/09/18 12:56:13;;;;;;;7.60;6.65;;;22.70;64.90;;;;;;5125067;27;20118;-62
2021/09/18 12:58:41;;;;;;;7.50;6.65;;;22.70;64.90;;;;;;5129873;27;20425;-60
2021/09/18 13:01:09;;;;;;;7.68;6.78;;;22.70;64.90;;;;;;5132277;27;20071;-64
2021/09/18 13:03:35;;;;;;;7.63;6.90;;;22.70;64.80;;;;;;5131760;27;20486;-63
2021/09/18 13:06:10;;;;;;;7.68;6.88;;;22.70;64.80;;;;;;5133152;27;20031;-63
2021/09/18 13:08:44;;;;;;;7.82;7.07;;;22.70;64.80;;;;;;5137097;27;20425;-59
2021/09/18 13:11:25;;;;;;;7.78;6.97;;;22.70;64.80;;;;;;5133909;27;20112;-62
2021/09/18 13:13:52;;;;;;;8.90;7.30;;;22.70;64.80;;;;;;5119910;27;20044;-63
2021/09/18 13:16:20;;;;;;;7.28;6.57;;;22.70;64.80;;;;;;5125464;27;21287;-60
2021/09/18 13:19:09;;;;;;;7.53;6.82;;;22.70;64.70;;;;;;5122309;27;20506;-62
2021/09/18 13:21:37;;;;;;;7.38;6.70;;;22.80;64.70;;;;;;5115315;27;20078;-61
2021/09/18 13:24:03;;;;;;;7.88;7.07;;;22.80;64.70;;;;;;5120264;27;20039;-60
2021/09/18 13:26:29;;;;;;;7.68;6.90;;;22.80;64.70;;;;;;5129638;27;20501;-58
2021/09/18 13:28:55;;;;;;;7.07;6.38;;;22.80;64.60;;;;;;5111233;27;20031;-63
2021/09/18 13:31:20;;;;;;;7.95;6.15;;;22.80;64.60;;;;;;5129461;27;20042;-62
2021/09/18 13:33:46;;;;;;;6.70;6.10;;;22.80;64.50;;;;;;5128413;27;20065;-62
2021/09/18 13:36:11;;;;;;;6.82;5.65;;;22.80;64.50;;;;;;5130754;27;20377;-61
2021/09/18 13:38:37;;;;;;;6.65;6.05;;;22.80;64.40;;;;;;5131260;27;20065;-61
2021/09/18 13:41:03;;;;;;;5.60;5.10;;;22.80;64.40;;;;;;5129720;27;20061;-63
2021/09/18 13:43:29;;;;;;;6.72;6.07;;;22.80;64.40;;;;;;5134735;27;20047;-60
2021/09/18 13:45:54;;;;;;;5.70;5.15;;;22.90;64.40;;;;;;5130764;27;20531;-58
2021/09/18 13:48:20;;;;;;;5.70;5.18;;;22.80;64.30;;;;;;5124504;27;20502;-58
2021/09/18 13:50:45;;;;;;;6.10;5.57;;;22.80;64.30;;;;;;5131453;27;20027;-61
2021/09/18 13:53:11;;;;;;;5.97;5.40;;;22.90;64.30;;;;;;5131492;27;20027;-62
2021/09/18 13:55:37;;;;;;;6.05;5.47;;;22.90;64.30;;;;;;5131791;27;20029;-61
2021/09/18 13:58:03;;;;;;;6.28;5.75;;;22.90;64.30;;;;;;5131463;27;20039;-61
2021/09/18 14:00:30;;;;;;;6.00;5.50;;;22.90;64.20;;;;;;5130987;27;20068;-60
2021/09/18 14:02:56;;;;;;;6.45;5.63;;;22.90;64.30;;;;;;5113303;27;20379;-60
2021/09/18 14:05:22;;;;;;;6.53;5.82;;;22.90;64.10;;;;;;5115143;27;20077;-60
2021/09/18 14:07:48;;;;;;;6.63;5.93;;;22.90;64.10;;;;;;5098009;27;20030;-61
2021/09/18 14:10:14;;;;;;;6.18;5.68;;;22.90;64.10;;;;;;5131506;27;20042;-62
2021/09/18 14:12:39;;;;;;;6.65;5.97;;;22.90;64.10;;;;;;5118495;27;20100;-62
2021/09/18 14:15:08;;;;;;;6.22;5.63;;;22.90;64.00;;;;;;5123122;27;20497;-63
2021/09/18 14:17:34;;;;;;;7.13;6.43;;;22.90;64.00;;;;;;5130125;27;20082;-63
2021/09/18 14:20:00;;;;;;;6.25;5.65;;;22.90;64.00;;;;;;5132079;27;20521;-63
2021/09/18 14:22:26;;;;;;;6.55;5.95;;;22.90;64.00;;;;;;5137062;27;20494;-62
2021/09/18 14:24:52;;;;;;;5.97;5.47;;;22.90;64.00;;;;;;5136714;27;20522;-64
2021/09/18 14:27:18;;;;;;;5.97;5.38;;;22.90;64.00;;;;;;5120576;27;20032;-63
2021/09/18 14:32:50;;;;;;;5.30;4.80;;;22.90;64.00;;;;;;5135211;27;20151;-63
2021/09/18 14:35:16;;;;;;;5.93;5.43;;;22.90;64.00;;;;;;5138577;27;20034;-63
2021/09/18 14:37:42;;;;;;;6.25;5.60;;;22.90;64.00;;;;;;5136591;27;20054;-60
2021/09/18 14:40:10;;;;;;;6.15;5.15;;;22.90;64.00;;;;;;5136063;27;20045;-63
2021/09/18 14:42:35;;;;;;;6.68;6.07;;;22.90;64.00;;;;;;5139083;27;20593;-58
2021/09/18 14:45:03;;;;;;;6.15;5.55;;;22.90;64.00;;;;;;5133087;27;20134;-61
2021/09/18 14:47:28;;;;;;;6.43;5.82;;;22.90;63.90;;;;;;5112212;27;20047;-61
2021/09/18 14:49:54;;;;;;;5.72;5.22;;;22.90;63.90;;;;;;5134865;27;20030;-61
2021/09/18 14:52:20;;;;;;;5.63;5.03;;;22.90;63.90;;;;;;5130666;27;20042;-61
2021/09/18 14:54:45;;;;;;;5.15;4.70;;;22.90;63.90;;;;;;5116262;27;20026;-60
2021/09/18 14:57:11;;;;;;;5.80;5.30;;;23.00;64.00;;;;;;5122834;27;20038;-60
2021/09/18 14:59:37;;;;;;;5.85;5.28;;;23.00;63.90;;;;;;5136634;27;20045;-64
2021/09/18 15:02:04;;;;;;;5.22;4.80;;;23.00;63.90;;;;;;5132067;27;20039;-62
2021/09/18 15:04:30;;;;;;;5.05;4.65;;;23.00;63.90;;;;;;5112981;27;20062;-60
2021/09/18 15:06:55;;;;;;;5.43;4.95;;;23.00;63.80;;;;;;5130584;27;20065;-62
2021/09/18 15:09:21;;;;;;;4.95;4.55;;;23.00;63.80;;;;;;5135853;27;20046;-59
2021/09/18 15:11:47;;;;;;;4.68;4.28;;;23.00;63.80;;;;;;5130177;27;20096;-63
2021/09/18 15:15:57;;;;;;;5.07;4.57;;;23.00;63.20;;;;;;5085861;28;20167;-66
2021/09/18 15:18:23;;;;;;;5.55;5.05;;;23.00;63.60;;;;;;5082354;28;20536;-66
2021/09/18 15:20:49;;;;;;;4.88;4.43;;;23.10;63.60;;;;;;5059205;28;20038;-66
2021/09/18 15:23:14;;;;;;;5.53;4.63;;;23.10;63.50;;;;;;5065476;28;20017;-67
2021/09/18 15:25:40;;;;;;;4.85;4.30;;;23.10;63.30;;;;;;5055521;28;20066;-66
2021/09/18 15:28:06;;;;;;;4.10;3.75;;;23.10;63.20;;;;;;5054757;28;20029;-66
2021/09/18 15:30:32;;;;;;;5.00;4.07;;;23.10;63.20;;;;;;5054210;28;20040;-66
2021/09/18 15:32:57;;;;;;;4.72;4.30;;;23.10;63.10;;;;;;5059704;28;20029;-66
2021/09/18 15:35:23;;;;;;;3.95;3.65;;;23.10;63.00;;;;;;5063676;28;20163;-66
2021/09/18 15:37:49;;;;;;;4.38;3.88;;;23.20;63.00;;;;;;5066006;28;20025;-66
2021/09/18 15:40:15;;;;;;;4.32;3.92;;;23.30;63.00;;;;;;5063548;28;20032;-65
2021/09/18 15:42:41;;;;;;;4.35;3.95;;;23.30;63.30;;;;;;5061563;28;20396;-65
2021/09/18 15:45:08;;;;;;;4.60;3.97;;;23.40;62.60;;;;;;5066160;28;20452;-62
2021/09/18 15:47:35;;;;;;;4.20;3.80;;;23.50;62.60;;;;;;5064272;28;20033;-65
2021/09/18 15:50:01;;;;;;;4.28;3.88;;;23.60;62.60;;;;;;5063827;28;20028;-65
2021/09/18 15:52:26;;;;;;;4.15;3.85;;;23.60;62.40;;;;;;5066281;28;20078;-65
2021/09/18 15:54:52;;;;;;;4.47;4.07;;;23.70;62.20;;;;;;5066684;28;20071;-64
2021/09/18 15:57:18;;;;;;;4.75;4.35;;;23.70;61.50;;;;;;5064890;28;20060;-65
2021/09/18 15:59:43;;;;;;;4.10;3.63;;;23.70;61.50;;;;;;5074437;28;20041;-66
2021/09/18 16:02:09;;;;;;;4.18;3.78;;;23.70;61.40;;;;;;5066016;28;20127;-65
2021/09/18 16:04:35;;;;;;;4.07;3.75;;;23.80;61.70;;;;;;5070878;28;20032;-65
2021/09/18 16:07:04;;;;;;;4.10;3.47;;;23.80;61.60;;;;;;5070313;28;20494;-65
2021/09/18 16:09:33;;;;;;;3.47;3.17;;;23.80;61.30;;;;;;5066666;28;20028;-65
2021/09/18 16:12:00;;;;;;;4.20;3.53;;;23.80;61.20;;;;;;5063185;28;20044;-65
2021/09/18 16:14:28;;;;;;;3.90;3.08;;;23.80;61.20;;;;;;5074746;28;20036;-65
2021/09/18 16:16:54;;;;;;;3.70;3.40;;;23.80;61.00;;;;;;5084793;28;20039;-65
2021/09/18 16:19:20;;;;;;;3.28;2.97;;;23.80;61.10;;;;;;5083879;28;20032;-65
2021/09/18 16:21:45;;;;;;;4.50;3.17;;;23.80;60.90;;;;;;5094431;28;20025;-65
2021/09/18 16:24:11;;;;;;;3.78;2.97;;;23.80;60.90;;;;;;5083822;28;20061;-65
2021/09/18 16:26:37;;;;;;;3.05;2.85;;;23.80;60.70;;;;;;5078121;28;20121;-65
2021/09/18 16:29:04;;;;;;;3.42;3.13;;;23.80;60.80;;;;;;5069892;28;20044;-65
2021/09/18 16:31:31;;;;;;;3.15;2.90;;;23.70;60.70;;;;;;5072747;28;20479;-65
2021/09/18 16:33:57;;;;;;;3.22;2.80;;;23.70;60.70;;;;;;5070539;28;20028;-65
2021/09/18 16:36:22;;;;;;;3.13;2.90;;;23.60;60.60;;;;;;5072066;28;20100;-64
2021/09/18 16:38:49;;;;;;;3.58;2.78;;;23.60;60.60;;;;;;5069158;28;20028;-65
2021/09/18 16:41:18;;;;;;;3.33;3.03;;;23.60;60.60;;;;;;5072254;28;20029;-65
2021/09/18 16:43:45;;;;;;;3.13;2.83;;;23.50;61.30;;;;;;5068140;28;20055;-65
2021/09/18 16:46:11;;;;;;;3.10;2.80;;;23.50;60.70;;;;;;5058954;28;20033;-63
2021/09/18 16:48:38;;;;;;;3.28;2.63;;;23.50;60.80;;;;;;5065572;28;20432;-66
2021/09/18 16:51:04;;;;;;;2.92;2.63;;;23.50;60.90;;;;;;5065771;28;20040;-67
2021/09/18 16:53:29;;;;;;;3.08;2.78;;;23.40;61.00;;;;;;5071051;28;20101;-66
2021/09/18 16:55:56;;;;;;;2.53;2.33;;;23.40;61.20;;;;;;5072033;28;20029;-67
2021/09/18 16:58:21;;;;;;;3.15;2.30;;;23.40;61.40;;;;;;5068179;28;20032;-66
2021/09/18 17:00:47;;;;;;;2.33;2.13;;;23.40;61.50;;;;;;5068427;28;20024;-67
2021/09/18 17:03:13;;;;;;;4.05;2.72;;;23.30;61.50;;;;;;5067542;28;20036;-67
2021/09/18 17:05:38;;;;;;;2.80;2.60;;;23.30;61.60;;;;;;5070198;28;20043;-67
2021/09/18 17:08:05;;;;;;;2.20;2.03;;;23.30;61.70;;;;;;5053446;28;20123;-66
2021/09/18 17:10:31;;;;;;;3.30;2.22;;;23.20;61.70;;;;;;5067246;28;20032;-67
2021/09/18 17:12:57;;;;;;;2.40;2.20;;;23.20;61.70;;;;;;5069175;28;20092;-68
2021/09/18 17:15:23;;;;;;;3.00;2.35;;;23.20;61.70;;;;;;5073365;28;20506;-67
2021/09/18 17:17:48;;;;;;;2.72;2.53;;;23.20;61.80;;;;;;5069497;28;20032;-67
2021/09/18 17:20:14;;;;;;;2.45;2.25;;;23.10;61.70;;;;;;5069019;28;20329;-67
2021/09/18 17:22:40;;;;;;;2.40;2.20;;;23.10;61.70;;;;;;5074097;28;20028;-67
2021/09/18 17:25:07;;;;;;;2.67;2.47;;;23.10;61.80;;;;;;5067309;28;20059;-67
2021/09/18 17:27:33;;;;;;;2.33;2.13;;;23.10;61.90;;;;;;5070364;28;20036;-66
2021/09/18 17:29:58;;;;;;;5.93;2.55;;;23.00;61.70;;;;;;5079100;28;20035;-66
2021/09/18 17:32:24;;;;;;;2.70;2.50;;;23.00;61.80;;;;;;5072848;28;20043;-65
2021/09/18 17:34:55;;;;;;;3.20;2.65;;;23.00;61.80;;;;;;5068728;28;20082;-63
2021/09/18 17:37:24;;;;;;;3.27;2.37;;;22.90;61.70;;;;;;5067690;28;20191;-63
2021/09/18 17:39:50;;;;;;;2.78;2.58;;;22.90;61.80;;;;;;5047050;28;20289;-62
2021/09/18 17:42:16;;;;;;;2.70;2.30;;;22.90;61.90;;;;;;5065197;28;20132;-64
2021/09/18 17:44:41;;;;;;;2.42;2.22;;;22.90;61.90;;;;;;5066237;28;20165;-64
2021/09/18 17:47:07;;;;;;;2.40;2.20;;;22.90;62.00;;;;;;5064008;28;20028;-63
2021/09/18 17:49:33;;;;;;;2.42;2.22;;;22.90;62.10;;;;;;5067616;28;20036;-64
2021/09/18 17:51:58;;;;;;;2.50;2.30;;;22.90;62.10;;;;;;5066711;28;20036;-64
2021/09/18 17:54:24;;;;;;;2.50;2.30;;;22.80;62.20;;;;;;5065976;28;20078;-64
2021/09/18 17:56:50;;;;;;;2.25;2.05;;;22.90;62.30;;;;;;5063331;28;20499;-64
2021/09/18 17:59:15;;;;;;;2.35;2.15;;;22.90;62.30;;;;;;5067479;28;20021;-64
2021/09/18 18:01:41;;;;;;;2.35;2.22;;;22.90;62.40;;;;;;5065548;28;20193;-65
2021/09/18 18:04:07;;;;;;;2.50;2.30;;;22.90;62.40;;;;;;5062012;28;20329;-64
2021/09/18 18:06:33;;;;;;;2.33;2.13;;;22.80;62.40;;;;;;5066977;28;20468;-64
2021/09/18 18:08:58;;;;;;;2.70;2.50;;;22.80;62.50;;;;;;5049992;28;20039;-64
2021/09/18 18:11:24;;;;;;;2.72;2.53;;;22.80;62.50;;;;;;5070265;28;20352;-64
2021/09/18 18:13:50;;;;;;;2.67;2.47;;;22.80;62.50;;;;;;5066249;28;20561;-64
2021/09/18 18:16:16;;;;;;;2.03;1.92;;;22.80;62.50;;;;;;5079192;28;20036;-64
2021/09/18 18:18:58;;;;;;;;;;;;;;;;;;;;;
2021/09/18 18:21:39;;;;;;;2.28;2.00;;;22.80;62.50;;;;;;5049962;28;20044;-64
2021/09/18 18:24:08;;;;;;;2.40;2.20;;;22.80;62.60;;;;;;5069706;28;20041;-64
2021/09/18 18:26:34;;;;;;;2.15;1.95;;;22.80;62.60;;;;;;5068193;28;20028;-65
2021/09/18 18:29:00;;;;;;;2.35;2.15;;;22.80;62.60;;;;;;5070980;28;20480;-64
2021/09/18 18:31:26;;;;;;;1.80;1.70;;;22.80;62.60;;;;;;5067538;28;20052;-65
2021/09/18 18:37:08;;;;;;;2.20;2.10;;;22.80;62.60;;;;;;5073441;28;20070;-63
2021/09/18 18:39:34;;;;;;;2.30;2.10;;;22.80;62.60;;;;;;5073734;28;20111;-65
2021/09/18 18:45:45;;;;;;;2.78;2.05;;;22.80;62.70;;;;;;4983557;28;20088;-62
2021/09/18 18:48:14;;;;;;;2.50;2.30;;;22.70;62.60;;;;;;4982869;28;20037;-64
2021/09/18 18:50:40;;;;;;;2.85;1.95;;;22.80;62.70;;;;;;5033393;28;20063;-64
2021/09/18 18:53:07;;;;;;;2.22;2.10;;;22.70;62.70;;;;;;5070179;28;20032;-63
2021/09/18 18:55:34;;;;;;;2.15;2.05;;;22.70;62.60;;;;;;5064949;28;20031;-62
2021/09/18 18:58:10;;;;;;;2.42;2.22;;;22.80;62.60;;;;;;5064254;28;20025;-63
2021/09/18 19:00:41;;;;;;;2.33;2.13;;;22.80;62.70;;;;;;5048143;28;20029;-63
2021/09/18 19:16:29;;;;;;;1.80;1.70;;;22.70;62.70;;;;;;5053235;28;20518;-63
2021/09/18 19:18:54;;;;;;;2.35;2.15;;;22.70;62.80;;;;;;5065548;28;20052;-66
2021/09/18 19:21:20;;;;;;;2.30;2.10;;;22.70;62.80;;;;;;5069558;28;20036;-64
2021/09/18 19:23:46;;;;;;;1.85;1.73;;;22.70;62.80;;;;;;5067234;28;20499;-65
2021/09/18 19:26:12;;;;;;;1.90;1.80;;;22.70;62.80;;;;;;5067262;28;20022;-65
2021/09/18 19:28:38;;;;;;;2.20;2.03;;;22.70;62.80;;;;;;5066813;28;20029;-65
2021/09/18 19:32:03;;;;;;;;;;;;;;;;;;;;;
2021/09/18 19:41:28;;;;;;;2.33;2.13;;;22.70;62.80;;;;;;4964065;28;20041;-64
2021/09/18 22:45:25;;;;;;;1.23;1.10;;;22.30;62.70;;;;;;5037820;28;20072;-61
2021/09/18 22:48:03;;;;;;;;;;;;;;;;;;;;;
2021/09/18 22:50:41;;;;;;;1.15;1.10;;;22.20;62.70;;;;;;5046275;28;20038;-63
2021/09/18 23:10:33;;;;;;;1.00;1.00;;;22.30;62.70;;;;;;5045832;28;20055;-64
2021/09/18 23:43:16;;;;;;;1.17;1.10;;;22.20;62.60;;;;;;4898533;29;20070;-62
